createdAt,value
2017-06-15T00:00:26.336Z,10.80
2017-06-15T00:02:53.903Z,11.03
2017-06-15T00:05:21.494Z,11.37
2017-06-15T00:07:49.054Z,10.90
2017-06-15T00:10:16.632Z,10.10
2017-06-15T00:12:44.194Z,11.10
2017-06-15T00:15:11.741Z,10.00
2017-06-15T00:17:39.325Z,11.17
2017-06-15T00:20:06.884Z,11.50
2017-06-15T00:22:34.475Z,10.50
2017-06-15T00:25:02.788Z,11.40
2017-06-15T00:27:30.352Z,10.93
2017-06-15T00:29:57.944Z,11.00
2017-06-15T00:32:25.507Z,10.80
2017-06-15T00:34:53.099Z,11.20
2017-06-15T00:37:20.663Z,10.67
2017-06-15T00:39:48.255Z,10.90
2017-06-15T00:42:15.823Z,12.00
2017-06-15T00:44:43.411Z,11.17
2017-06-15T00:47:10.978Z,12.37
2017-06-15T00:49:39.367Z,11.87
2017-06-15T00:52:07.708Z,11.23
2017-06-15T00:54:35.281Z,12.10
2017-06-15T00:57:02.895Z,12.63
2017-06-15T00:59:30.484Z,12.60
2017-06-15T01:01:58.090Z,12.43
2017-06-15T01:04:26.449Z,11.97
2017-06-15T01:06:54.014Z,11.00
2017-06-15T01:09:21.760Z,11.50
2017-06-15T01:11:49.346Z,10.90
2017-06-15T01:14:16.894Z,10.90
2017-06-15T01:16:44.485Z,12.27
2017-06-15T01:19:12.079Z,13.17
2017-06-15T01:21:39.658Z,11.37
2017-06-15T01:24:07.225Z,13.63
2017-06-15T01:26:34.784Z,12.00
2017-06-15T01:29:02.375Z,11.70
2017-06-15T01:31:30.733Z,11.53
2017-06-15T01:33:58.286Z,12.50
2017-06-15T01:36:25.833Z,13.10
2017-06-15T01:38:53.423Z,11.27
2017-06-15T01:41:21.764Z,11.50
2017-06-15T01:43:49.343Z,12.57
2017-06-15T01:46:16.971Z,12.00
2017-06-15T01:48:44.530Z,12.50
2017-06-15T01:51:12.121Z,12.07
2017-06-15T01:53:39.673Z,11.03
2017-06-15T01:56:07.262Z,11.80
2017-06-15T01:58:34.868Z,11.77
2017-06-15T02:01:02.434Z,12.90
2017-06-15T02:03:30.026Z,11.03
2017-06-15T02:05:57.619Z,11.93
2017-06-15T02:08:25.180Z,13.70
2017-06-15T02:10:52.779Z,12.90
2017-06-15T02:13:20.336Z,12.83
2017-06-15T02:15:47.915Z,13.53
2017-06-15T02:18:15.475Z,14.10
2017-06-15T02:20:43.053Z,13.30
2017-06-15T02:23:10.633Z,12.80
2017-06-15T02:25:38.195Z,12.90
2017-06-15T02:28:05.787Z,13.20
2017-06-15T02:30:33.371Z,12.43
2017-06-15T02:33:00.973Z,11.77
2017-06-15T02:35:28.537Z,12.07
2017-06-15T02:37:56.098Z,12.13
2017-06-15T02:40:24.461Z,13.37
2017-06-15T02:42:52.783Z,11.73
2017-06-15T02:45:20.367Z,13.87
2017-06-15T02:47:47.925Z,12.53
2017-06-15T02:50:15.533Z,11.93
2017-06-15T02:52:43.862Z,12.57
2017-06-15T02:55:11.423Z,12.13
2017-06-15T02:57:39.003Z,12.37
2017-06-15T03:00:06.595Z,11.17
2017-06-15T03:02:34.206Z,11.00
2017-06-15T03:05:01.765Z,10.50
2017-06-15T03:07:30.227Z,9.87
2017-06-15T03:09:57.813Z,10.83
2017-06-15T03:12:27.478Z,9.77
2017-06-15T03:14:55.032Z,10.13
2017-06-15T03:17:22.624Z,8.93
2017-06-15T03:19:50.201Z,9.63
2017-06-15T03:22:17.750Z,9.47
2017-06-15T03:24:45.342Z,8.83
2017-06-15T03:27:12.889Z,8.70
2017-06-15T03:29:40.453Z,8.53
2017-06-15T03:32:08.045Z,8.03
2017-06-15T03:34:36.357Z,8.63
2017-06-15T03:37:03.936Z,8.57
2017-06-15T03:39:31.483Z,7.93
2017-06-15T03:41:59.068Z,7.33
2017-06-15T03:44:26.623Z,8.23
2017-06-15T03:46:54.171Z,6.53
2017-06-15T03:49:21.749Z,7.10
2017-06-15T03:51:49.297Z,7.47
2017-06-15T03:54:16.875Z,6.40
2017-06-15T03:56:44.439Z,6.60
2017-06-15T03:59:12.005Z,6.43
2017-06-15T04:01:39.594Z,6.40
2017-06-15T04:04:07.157Z,7.00
2017-06-15T04:06:34.750Z,6.67
2017-06-15T04:09:02.312Z,6.20
2017-06-15T04:11:29.890Z,6.43
2017-06-15T04:13:57.452Z,6.17
2017-06-15T04:16:25.030Z,6.43
2017-06-15T04:18:53.342Z,6.20
2017-06-15T04:21:20.936Z,6.97
2017-06-15T04:23:48.484Z,6.93
2017-06-15T04:26:16.024Z,6.10
2017-06-15T04:28:43.610Z,6.17
2017-06-15T04:31:11.156Z,6.23
2017-06-15T04:33:38.734Z,6.27
2017-06-15T04:36:06.318Z,6.07
2017-06-15T04:38:33.885Z,6.30
2017-06-15T04:41:02.238Z,6.40
2017-06-15T04:43:29.801Z,6.17
2017-06-15T04:45:57.388Z,6.07
2017-06-15T04:48:24.937Z,6.23
2017-06-15T04:50:53.295Z,5.90
2017-06-15T04:53:20.873Z,6.03
2017-06-15T04:55:48.431Z,6.27
2017-06-15T04:58:16.022Z,5.60
2017-06-15T05:00:43.576Z,5.77
2017-06-15T05:03:11.138Z,5.93
2017-06-15T05:05:38.731Z,5.40
2017-06-15T05:08:06.293Z,5.90
2017-06-15T05:10:33.841Z,6.30
2017-06-15T05:13:01.419Z,6.03
2017-06-15T05:15:29.702Z,6.70
2017-06-15T05:17:57.294Z,6.40
2017-06-15T05:20:24.872Z,6.57
2017-06-15T05:22:52.450Z,5.63
2017-06-15T05:25:19.994Z,5.80
2017-06-15T05:27:50.988Z,6.20
2017-06-15T05:30:18.550Z,5.30
2017-06-15T05:32:46.145Z,5.53
2017-06-15T05:35:13.699Z,5.60
2017-06-15T05:37:41.323Z,6.60
2017-06-15T05:40:08.895Z,5.70
2017-06-15T05:42:36.449Z,5.67
2017-06-15T05:45:04.042Z,6.53
2017-06-15T05:47:31.604Z,5.47
2017-06-15T05:49:59.166Z,5.80
2017-06-15T05:52:26.744Z,5.20
2017-06-15T05:54:55.358Z,5.53
2017-06-15T05:57:22.950Z,5.97
2017-06-15T05:59:50.497Z,5.80
2017-06-15T06:02:18.089Z,5.50
2017-06-15T06:04:45.639Z,5.60
2017-06-15T06:07:13.187Z,5.43
2017-06-15T06:09:40.795Z,5.90
2017-06-15T06:12:08.416Z,6.17
2017-06-15T06:14:35.994Z,5.57
2017-06-15T06:17:04.308Z,5.30
2017-06-15T06:19:31.901Z,5.30
2017-06-15T06:21:59.463Z,5.87
2017-06-15T06:24:27.010Z,5.37
2017-06-15T06:26:54.589Z,5.60
2017-06-15T06:29:22.152Z,5.73
2017-06-15T06:31:49.731Z,4.80
2017-06-15T06:34:18.059Z,5.90
2017-06-15T06:36:46.131Z,5.43
2017-06-15T06:39:13.709Z,5.23
2017-06-15T06:41:41.264Z,6.20
2017-06-15T06:44:08.865Z,6.10
2017-06-15T06:46:36.413Z,6.13
2017-06-15T06:49:04.742Z,5.67
2017-06-15T06:51:32.333Z,5.90
2017-06-15T06:53:59.881Z,5.73
2017-06-15T06:56:27.491Z,6.20
2017-06-15T06:58:55.053Z,5.23
2017-06-15T07:01:22.617Z,5.73
2017-06-15T07:03:50.208Z,6.67
2017-06-15T07:06:17.750Z,5.87
2017-06-15T07:08:45.334Z,6.37
2017-06-15T07:11:12.882Z,5.50
2017-06-15T07:13:40.474Z,5.70
2017-06-15T07:16:08.022Z,5.13
2017-06-15T07:18:35.570Z,5.90
2017-06-15T07:21:03.163Z,5.60
2017-06-15T07:23:30.712Z,5.60
2017-06-15T07:25:58.260Z,6.10
2017-06-15T07:28:25.851Z,5.90
2017-06-15T07:30:53.431Z,5.97
2017-06-15T07:33:20.993Z,6.20
2017-06-15T07:35:48.587Z,6.70
2017-06-15T07:38:16.149Z,6.17
2017-06-15T07:40:43.727Z,6.20
2017-06-15T07:43:11.307Z,6.33
2017-06-15T07:45:39.619Z,5.50
2017-06-15T07:48:07.197Z,6.17
2017-06-15T07:50:34.743Z,5.83
2017-06-15T07:53:02.338Z,8.27
2017-06-15T07:55:29.885Z,5.97
2017-06-15T07:57:57.434Z,5.90
2017-06-15T08:00:25.041Z,6.30
2017-06-15T08:02:54.672Z,6.50
2017-06-15T08:05:22.236Z,7.13
2017-06-15T08:07:49.830Z,6.27
2017-06-15T08:10:34.568Z,6.90
2017-06-15T08:13:02.162Z,5.80
2017-06-15T08:15:29.730Z,6.20
2017-06-15T08:17:58.158Z,6.80
2017-06-15T08:20:25.720Z,5.63
2017-06-15T08:22:53.328Z,6.50
2017-06-15T08:25:21.925Z,6.33
2017-06-15T08:27:49.473Z,5.80
2017-06-15T08:30:17.051Z,6.40
2017-06-15T08:32:45.304Z,6.40
2017-06-15T08:35:14.884Z,5.80
2017-06-15T08:37:44.524Z,6.60
2017-06-15T08:40:12.109Z,5.93
2017-06-15T08:42:39.656Z,6.10
2017-06-15T08:45:07.904Z,5.43
2017-06-15T08:47:35.466Z,6.77
2017-06-15T08:50:07.035Z,6.10
2017-06-15T08:52:37.522Z,5.70
2017-06-15T08:55:05.167Z,6.10
2017-06-15T08:57:33.567Z,6.63
2017-06-15T09:00:01.127Z,6.30
2017-06-15T09:02:28.688Z,5.50
2017-06-15T09:04:56.326Z,5.40
2017-06-15T09:07:24.641Z,6.77
2017-06-15T09:09:52.203Z,5.10
2017-06-15T09:12:19.794Z,5.47
2017-06-15T09:14:47.342Z,5.27
2017-06-15T09:17:14.920Z,5.47
2017-06-15T09:19:44.809Z,5.50
2017-06-15T09:22:12.406Z,4.63
2017-06-15T09:24:40.732Z,4.93
2017-06-15T09:27:08.354Z,5.33
2017-06-15T09:29:36.709Z,5.37
2017-06-15T09:32:04.304Z,5.43
2017-06-15T09:34:31.897Z,4.67
2017-06-15T09:36:59.458Z,5.13
2017-06-15T09:39:27.066Z,4.40
2017-06-15T09:41:56.324Z,5.07
2017-06-15T09:44:23.874Z,6.00
2017-06-15T09:46:51.495Z,4.30
2017-06-15T09:49:19.828Z,5.37
2017-06-15T09:51:49.170Z,4.20
2017-06-15T09:54:24.024Z,4.90
2017-06-15T09:56:51.646Z,4.87
2017-06-15T09:59:19.269Z,5.47
2017-06-15T10:01:47.720Z,5.67
2017-06-15T10:04:15.924Z,5.40
2017-06-15T10:06:43.518Z,4.80
2017-06-15T10:09:11.080Z,4.93
2017-06-15T10:11:38.678Z,5.20
2017-06-15T10:14:06.236Z,4.60
2017-06-15T10:16:33.792Z,5.00
2017-06-15T10:19:02.171Z,5.70
2017-06-15T10:21:29.734Z,5.60
2017-06-15T10:23:57.326Z,4.90
2017-06-15T10:26:24.898Z,4.67
2017-06-15T10:28:52.482Z,4.63
2017-06-15T10:31:20.089Z,4.60
2017-06-15T10:33:47.659Z,4.60
2017-06-15T10:36:15.685Z,5.00
2017-06-15T10:38:44.008Z,5.20
2017-06-15T10:41:11.602Z,4.40
2017-06-15T10:43:39.164Z,4.63
2017-06-15T10:46:06.742Z,4.90
2017-06-15T10:48:35.100Z,4.17
2017-06-15T10:51:02.663Z,5.60
2017-06-15T10:53:30.270Z,4.30
2017-06-15T10:55:57.819Z,4.27
2017-06-15T10:58:25.380Z,4.63
2017-06-15T11:00:52.958Z,4.80
2017-06-15T11:03:21.127Z,4.73
2017-06-15T11:05:49.739Z,4.90
2017-06-15T11:08:17.296Z,4.30
2017-06-15T11:10:44.890Z,5.07
2017-06-15T11:13:12.436Z,4.73
2017-06-15T11:15:39.985Z,5.17
2017-06-15T11:18:07.578Z,4.50
2017-06-15T11:20:35.384Z,4.80
2017-06-15T11:23:03.919Z,5.00
2017-06-15T11:25:31.481Z,5.20
2017-06-15T11:27:59.854Z,4.93
2017-06-15T11:30:27.401Z,5.30
2017-06-15T11:32:54.949Z,4.70
2017-06-15T11:35:22.543Z,4.67
2017-06-15T11:37:50.870Z,5.57
2017-06-15T11:40:19.478Z,5.10
2017-06-15T11:42:47.031Z,5.80
2017-06-15T11:45:14.597Z,4.80
2017-06-15T11:47:42.185Z,4.97
2017-06-15T11:50:10.514Z,5.03
2017-06-15T11:52:41.362Z,4.77
2017-06-15T11:55:09.134Z,6.00
2017-06-15T11:57:36.727Z,5.23
2017-06-15T12:00:05.086Z,4.57
2017-06-15T12:02:32.647Z,5.30
2017-06-15T12:05:00.259Z,4.77
2017-06-15T12:07:27.853Z,4.87
2017-06-15T12:09:55.416Z,4.27
2017-06-15T12:12:22.996Z,5.33
2017-06-15T12:14:50.545Z,4.60
2017-06-15T12:17:18.175Z,4.47
2017-06-15T12:19:45.722Z,5.37
2017-06-15T12:22:13.284Z,5.30
2017-06-15T12:24:40.878Z,5.50
2017-06-15T12:27:08.439Z,5.20
2017-06-15T12:29:36.033Z,4.57
2017-06-15T12:32:03.595Z,5.50
2017-06-15T12:34:31.160Z,5.50
2017-06-15T12:36:59.486Z,4.70
2017-06-15T12:39:27.050Z,5.03
2017-06-15T12:41:54.612Z,4.80
2017-06-15T12:44:22.270Z,5.13
2017-06-15T12:46:49.827Z,5.00
2017-06-15T12:49:17.389Z,5.43
2017-06-15T12:51:44.997Z,4.90
2017-06-15T12:54:13.310Z,4.53
2017-06-15T12:56:40.904Z,4.97
2017-06-15T12:59:08.465Z,4.53
2017-06-15T13:01:36.014Z,4.90
2017-06-15T13:04:03.607Z,4.73
2017-06-15T13:06:31.934Z,4.40
2017-06-15T13:08:59.482Z,5.37
2017-06-15T13:11:27.076Z,5.40
2017-06-15T13:13:54.637Z,5.63
2017-06-15T13:16:22.216Z,4.67
2017-06-15T13:18:50.537Z,5.00
2017-06-15T13:21:18.136Z,4.70
2017-06-15T13:23:45.690Z,5.27
2017-06-15T13:26:13.246Z,5.37
2017-06-15T13:28:40.824Z,5.03
2017-06-15T13:31:08.418Z,4.87
2017-06-15T13:33:36.016Z,5.20
2017-06-15T13:36:03.589Z,5.20
2017-06-15T13:38:31.181Z,5.57
2017-06-15T13:40:59.524Z,5.30
2017-06-15T13:43:27.131Z,5.90
2017-06-15T13:45:54.741Z,5.80
2017-06-15T13:48:35.823Z,5.40
2017-06-15T13:53:50.709Z,5.93
2017-06-15T13:56:18.392Z,5.93
2017-06-15T13:58:45.956Z,6.43
2017-06-15T14:01:13.558Z,6.10
2017-06-15T14:03:41.167Z,6.03
2017-06-15T14:06:08.729Z,7.20
2017-06-15T14:08:36.327Z,6.83
2017-06-15T14:11:04.462Z,8.07
2017-06-15T14:13:32.038Z,7.80
2017-06-15T14:15:59.791Z,8.23
2017-06-15T14:18:27.390Z,9.20
2017-06-15T14:20:54.985Z,7.50
2017-06-15T14:23:22.705Z,7.83
2017-06-15T14:25:50.269Z,7.93
2017-06-15T14:28:18.776Z,7.70
2017-06-15T14:30:46.384Z,9.00
2017-06-15T14:33:14.051Z,16.70
2017-06-15T14:35:41.615Z,10.27
2017-06-15T14:38:10.438Z,10.30
2017-06-15T14:40:38.032Z,12.70
2017-06-15T14:43:07.679Z,11.20
2017-06-15T14:45:37.454Z,12.20
2017-06-15T14:48:05.010Z,12.63
2017-06-15T14:50:32.574Z,12.90
2017-06-15T14:53:00.831Z,12.30
2017-06-15T14:55:28.388Z,8.33
2017-06-15T14:57:55.986Z,7.60
2017-06-15T15:00:23.544Z,7.83
2017-06-15T15:02:51.182Z,9.77
2017-06-15T15:05:18.750Z,10.93
2017-06-15T15:07:46.307Z,8.13
2017-06-15T15:13:03.172Z,8.47
2017-06-15T15:15:31.500Z,8.10
2017-06-15T15:17:59.092Z,7.53
2017-06-15T15:20:30.391Z,8.97
2017-06-15T15:25:47.479Z,9.50
2017-06-15T15:28:17.592Z,9.67
2017-06-15T15:30:57.736Z,9.40
2017-06-15T15:33:25.405Z,9.20
2017-06-15T15:35:53.010Z,8.70
2017-06-15T15:38:21.407Z,9.50
2017-06-15T15:40:48.970Z,8.33
2017-06-15T15:43:16.563Z,8.40
2017-06-15T15:45:44.126Z,8.00
2017-06-15T15:48:11.719Z,8.57
2017-06-15T15:50:39.417Z,8.93
2017-06-15T15:53:06.980Z,9.00
2017-06-15T15:55:34.582Z,9.13
2017-06-15T15:58:02.136Z,8.03
2017-06-15T16:00:29.885Z,8.17
2017-06-15T16:02:58.463Z,6.73
2017-06-15T16:05:26.387Z,7.57
2017-06-15T16:07:54.218Z,7.20
2017-06-15T16:10:22.188Z,7.03
2017-06-15T16:12:49.784Z,8.20
2017-06-15T16:15:17.371Z,7.60
2017-06-15T16:17:44.947Z,7.50
2017-06-15T16:20:12.577Z,7.00
2017-06-15T16:22:40.129Z,8.23
2017-06-15T16:25:07.692Z,7.30
2017-06-15T16:27:35.283Z,6.97
2017-06-15T16:30:02.830Z,7.27
2017-06-15T16:32:30.485Z,7.73
2017-06-15T16:34:58.694Z,6.33
2017-06-15T16:37:27.185Z,6.80
2017-06-15T16:39:57.815Z,6.30
2017-06-15T16:42:25.373Z,5.90
2017-06-15T16:44:52.964Z,5.00
2017-06-15T16:47:21.128Z,5.33
2017-06-15T16:49:49.486Z,6.10
2017-06-15T16:52:17.049Z,5.37
2017-06-15T16:54:45.498Z,5.30
2017-06-15T16:57:13.061Z,5.47
2017-06-15T16:59:40.617Z,5.93
2017-06-15T17:02:08.202Z,5.10
2017-06-15T17:04:36.621Z,7.10
2017-06-15T17:07:04.258Z,5.90
2017-06-15T17:09:32.587Z,5.93
2017-06-15T17:12:00.179Z,6.80
2017-06-15T17:14:27.726Z,7.20
2017-06-15T17:16:55.321Z,6.30
2017-06-15T17:19:23.818Z,6.33
2017-06-15T17:21:53.284Z,6.20
2017-06-15T17:24:20.891Z,6.20
2017-06-15T17:26:48.452Z,6.87
2017-06-15T17:29:16.119Z,7.13
2017-06-15T17:31:43.668Z,6.27
2017-06-15T17:34:12.626Z,6.80
2017-06-15T17:36:40.203Z,7.00
2017-06-15T17:39:07.849Z,6.40
2017-06-15T17:41:35.436Z,6.90
2017-06-15T17:44:02.998Z,6.63
2017-06-15T17:46:30.597Z,6.70
2017-06-15T17:48:58.543Z,6.90
2017-06-15T17:51:26.136Z,6.27
2017-06-15T17:53:53.709Z,6.83
2017-06-15T17:56:21.269Z,6.87
2017-06-15T17:58:48.858Z,7.50
2017-06-15T18:01:19.193Z,6.77
2017-06-15T18:03:46.786Z,6.80
2017-06-15T18:06:14.920Z,6.70
2017-06-15T18:08:43.293Z,5.70
2017-06-15T18:11:10.902Z,6.10
2017-06-15T18:13:39.303Z,5.23
2017-06-15T18:16:10.991Z,5.23
2017-06-15T18:18:38.569Z,4.93
2017-06-15T18:21:06.117Z,4.73
2017-06-15T18:23:34.506Z,4.80
2017-06-15T18:26:02.068Z,5.30
2017-06-15T18:28:30.510Z,4.50
2017-06-15T18:30:58.078Z,3.87
2017-06-15T18:33:25.672Z,4.40
2017-06-15T18:35:53.220Z,3.83
2017-06-15T18:38:21.096Z,3.90
2017-06-15T18:40:48.662Z,3.40
2017-06-15T18:43:16.210Z,3.23
2017-06-15T18:45:43.802Z,3.47
2017-06-15T18:48:11.366Z,3.60
2017-06-15T18:50:39.019Z,3.07
2017-06-15T18:53:06.623Z,3.43
2017-06-15T18:55:34.209Z,3.60
2017-06-15T18:58:01.797Z,3.40
2017-06-15T19:00:29.360Z,2.67
2017-06-15T19:02:56.963Z,2.80
2017-06-15T19:05:24.698Z,3.17
2017-06-15T19:07:53.074Z,3.20
2017-06-15T19:10:20.677Z,2.50
2017-06-15T19:12:50.716Z,2.77
2017-06-15T19:15:19.494Z,3.10
2017-06-15T19:17:48.094Z,2.60
2017-06-15T19:20:15.656Z,2.30
2017-06-15T19:22:43.879Z,2.90
2017-06-15T19:25:13.009Z,2.43
2017-06-15T19:27:41.375Z,2.57
2017-06-15T19:30:09.948Z,2.60
2017-06-15T19:32:38.216Z,2.40
2017-06-15T19:35:06.688Z,3.03
2017-06-15T19:37:34.253Z,2.30
2017-06-15T19:40:03.608Z,2.60
2017-06-15T19:42:32.108Z,2.37
2017-06-15T19:44:59.700Z,2.50
2017-06-15T19:47:27.294Z,2.40
2017-06-15T19:49:55.622Z,2.30
2017-06-15T19:52:23.215Z,2.47
2017-06-15T19:54:50.814Z,2.23
2017-06-15T19:57:18.369Z,2.10
2017-06-15T19:59:45.957Z,2.80
2017-06-15T20:02:14.217Z,2.67
2017-06-15T20:04:41.808Z,2.50
2017-06-15T20:07:09.358Z,2.17
2017-06-15T20:09:37.924Z,2.03
2017-06-15T20:12:05.488Z,2.70
2017-06-15T20:14:33.071Z,2.10
2017-06-15T20:17:00.658Z,2.30
2017-06-15T20:19:28.312Z,1.97
2017-06-15T20:21:55.919Z,2.60
2017-06-15T20:24:24.578Z,2.40
2017-06-15T20:26:56.490Z,2.70
2017-06-15T20:29:24.884Z,2.47
2017-06-15T20:31:52.518Z,2.37
2017-06-15T20:34:20.075Z,2.13
2017-06-15T20:36:51.259Z,2.70
2017-06-15T20:39:18.821Z,4.10
2017-06-15T20:41:46.474Z,2.23
2017-06-15T20:44:14.344Z,2.73
2017-06-15T20:46:41.899Z,2.43
2017-06-15T20:49:09.493Z,2.37
2017-06-15T20:51:37.820Z,2.23
2017-06-15T20:54:05.413Z,2.30
2017-06-15T20:56:32.975Z,2.87
2017-06-15T20:59:00.526Z,2.30
2017-06-15T21:01:28.115Z,2.37
2017-06-15T21:03:55.679Z,2.40
2017-06-15T21:06:23.286Z,2.13
2017-06-15T21:08:51.705Z,2.47
2017-06-15T21:11:20.363Z,2.97
2017-06-15T21:13:47.956Z,3.20
2017-06-15T21:16:15.518Z,2.37
2017-06-15T21:18:43.126Z,2.23
2017-06-15T21:21:10.674Z,2.73
2017-06-15T21:23:39.931Z,2.77
2017-06-15T21:26:09.114Z,2.20
2017-06-15T21:28:39.422Z,2.87
2017-06-15T21:31:06.986Z,2.17
2017-06-15T21:33:34.548Z,2.70
2017-06-15T21:36:02.155Z,2.00
2017-06-15T21:38:30.469Z,2.40
2017-06-15T21:40:58.033Z,1.67
2017-06-15T21:43:25.624Z,2.00
2017-06-15T21:45:56.353Z,2.13
2017-06-15T21:48:24.163Z,1.77
2017-06-15T21:50:51.748Z,2.10
2017-06-15T21:55:53.626Z,1.90
2017-06-15T21:58:21.217Z,2.30
2017-06-15T22:00:48.780Z,2.27
2017-06-15T22:03:16.374Z,1.90
2017-06-15T22:05:44.731Z,2.03
2017-06-15T22:08:13.061Z,1.90
2017-06-15T22:10:40.952Z,2.00
2017-06-15T22:13:08.505Z,2.27
2017-06-15T22:15:40.451Z,2.07
2017-06-15T22:18:08.021Z,1.77
2017-06-15T22:20:35.628Z,2.10
2017-06-15T22:23:03.183Z,2.23
2017-06-15T22:25:30.784Z,2.07
2017-06-15T22:27:58.349Z,2.17
2017-06-15T22:30:26.840Z,2.90
2017-06-15T22:32:54.432Z,2.60
2017-06-15T22:35:21.980Z,2.00
2017-06-15T22:37:49.557Z,2.50
2017-06-15T22:40:17.105Z,2.90
2017-06-15T22:42:44.683Z,1.50
2017-06-15T22:45:12.277Z,2.00
2017-06-15T22:47:39.839Z,2.60
2017-06-15T22:50:07.387Z,2.40
2017-06-15T22:52:35.025Z,2.30
2017-06-15T22:55:02.702Z,2.50
2017-06-15T22:57:30.316Z,2.20
2017-06-15T22:59:57.863Z,2.30
2017-06-15T23:02:37.118Z,2.13
2017-06-15T23:05:04.680Z,1.90
2017-06-15T23:07:32.259Z,2.57
2017-06-15T23:09:59.831Z,2.33
2017-06-15T23:12:28.144Z,2.20
2017-06-15T23:14:55.721Z,2.30
2017-06-15T23:17:23.269Z,2.33
2017-06-15T23:19:50.863Z,2.80
2017-06-15T23:22:18.430Z,2.07
2017-06-15T23:24:45.987Z,2.53
2017-06-15T23:27:13.580Z,2.40
2017-06-15T23:29:41.128Z,2.30
2017-06-15T23:32:09.487Z,3.77
2017-06-15T23:34:37.049Z,3.23
2017-06-15T23:37:04.611Z,2.30
2017-06-15T23:39:32.986Z,3.33
2017-06-15T23:42:00.547Z,2.80
2017-06-15T23:44:28.110Z,3.20
2017-06-15T23:46:55.688Z,3.10
2017-06-15T23:49:23.235Z,2.70
2017-06-15T23:51:50.813Z,2.60
2017-06-15T23:54:18.377Z,3.00
2017-06-15T23:56:45.975Z,2.57
2017-06-15T23:59:13.541Z,3.00
